createdAt,value
2018-12-04T00:01:22.955Z,72.50
2018-12-04T00:03:52.961Z,72.60
2018-12-04T00:06:22.753Z,72.50
2018-12-04T00:08:52.580Z,72.50
2018-12-04T00:11:22.358Z,72.20
2018-12-04T00:13:52.311Z,72.00
2018-12-04T00:16:22.030Z,71.80
2018-12-04T00:18:51.703Z,71.90
2018-12-04T00:21:21.523Z,72.00
2018-12-04T00:23:51.228Z,72.00
2018-12-04T00:26:21.179Z,72.10
2018-12-04T00:28:50.940Z,72.10
2018-12-04T00:31:20.648Z,72.10
2018-12-04T00:33:51.343Z,72.20
2018-12-04T00:36:21.134Z,72.10
2018-12-04T00:38:51.637Z,72.00
2018-12-04T00:41:21.441Z,72.10
2018-12-04T00:43:51.670Z,72.20
2018-12-04T00:46:21.419Z,72.40
2018-12-04T00:48:51.202Z,72.50
2018-12-04T00:51:20.916Z,72.60
2018-12-04T00:53:50.752Z,72.70
2018-12-04T00:56:20.478Z,72.70
2018-12-04T00:58:50.363Z,72.70
2018-12-04T01:01:25.439Z,72.70
2018-12-04T01:03:58.130Z,73.50
2018-12-04T01:06:27.855Z,72.70
2018-12-04T01:08:57.640Z,73.00
2018-12-04T01:11:27.437Z,73.10
2018-12-04T01:13:57.264Z,73.10
2018-12-04T01:16:26.853Z,73.00
2018-12-04T01:18:56.551Z,73.10
2018-12-04T01:21:26.193Z,73.00
2018-12-04T01:23:55.932Z,73.10
2018-12-04T01:26:25.657Z,73.20
2018-12-04T01:28:55.334Z,73.10
2018-12-04T01:31:24.945Z,73.20
2018-12-04T01:33:54.608Z,73.20
2018-12-04T01:36:24.233Z,73.30
2018-12-04T01:38:54.004Z,73.70
2018-12-04T01:41:23.784Z,73.40
2018-12-04T01:43:53.452Z,73.50
2018-12-04T01:46:23.184Z,73.60
2018-12-04T01:48:52.941Z,73.60
2018-12-04T01:51:22.696Z,73.70
2018-12-04T01:53:52.369Z,73.50
2018-12-04T01:56:22.853Z,73.50
2018-12-04T01:58:52.614Z,73.90
2018-12-04T02:01:22.426Z,73.30
2018-12-04T02:03:52.184Z,73.20
2018-12-04T02:06:21.969Z,73.20
2018-12-04T02:08:52.237Z,73.00
2018-12-04T02:11:21.953Z,73.10
2018-12-04T02:13:51.742Z,73.20
2018-12-04T02:16:21.536Z,73.30
2018-12-04T02:18:51.260Z,73.20
2018-12-04T02:21:20.973Z,73.10
2018-12-04T02:23:50.797Z,73.10
2018-12-04T02:26:20.541Z,72.90
2018-12-04T02:28:50.448Z,72.70
2018-12-04T02:31:20.115Z,72.80
2018-12-04T02:33:49.881Z,72.80
2018-12-04T02:36:19.597Z,72.90
2018-12-04T02:38:49.370Z,73.00
2018-12-04T02:41:19.058Z,73.10
2018-12-04T02:43:51.526Z,73.10
2018-12-04T02:46:21.456Z,73.20
2018-12-04T02:48:51.274Z,73.10
2018-12-04T02:51:20.985Z,73.20
2018-12-04T02:53:50.797Z,73.20
2018-12-04T02:56:20.739Z,73.20
2018-12-04T02:58:50.546Z,73.20
2018-12-04T03:01:20.337Z,73.30
2018-12-04T03:03:50.228Z,73.30
2018-12-04T03:06:20.042Z,73.20
2018-12-04T03:08:49.988Z,73.10
2018-12-04T03:11:19.751Z,73.10
2018-12-04T03:13:49.650Z,73.80
2018-12-04T03:16:19.325Z,73.80
2018-12-04T03:18:50.080Z,73.10
2018-12-04T03:21:19.871Z,73.00
2018-12-04T03:23:49.592Z,72.90
2018-12-04T03:26:19.303Z,72.80
2018-12-04T03:28:49.010Z,72.70
2018-12-04T03:31:18.663Z,72.40
2018-12-04T03:33:48.447Z,72.30
2018-12-04T03:36:18.228Z,72.30
2018-12-04T03:38:48.112Z,72.20
2018-12-04T03:41:17.831Z,72.10
2018-12-04T03:43:47.474Z,72.10
2018-12-04T03:46:17.083Z,72.10
2018-12-04T03:48:46.923Z,72.10
2018-12-04T03:51:16.564Z,72.10
2018-12-04T03:53:46.358Z,72.00
2018-12-04T03:56:16.001Z,71.70
2018-12-04T03:58:45.739Z,72.40
2018-12-04T04:01:15.347Z,71.60
2018-12-04T04:03:45.071Z,71.30
2018-12-04T04:06:14.799Z,71.30
2018-12-04T04:08:44.443Z,71.40
2018-12-04T04:11:14.126Z,71.30
2018-12-04T04:13:43.830Z,71.10
2018-12-04T04:16:13.677Z,71.00
2018-12-04T04:18:43.364Z,71.00
2018-12-04T04:21:13.162Z,70.90
2018-12-04T04:23:42.977Z,70.90
2018-12-04T04:26:12.821Z,71.20
2018-12-04T04:28:42.594Z,71.30
2018-12-04T04:31:12.403Z,71.30
2018-12-04T04:33:42.253Z,71.20
2018-12-04T04:36:12.081Z,71.30
2018-12-04T04:38:41.922Z,71.50
2018-12-04T04:41:11.677Z,71.90
2018-12-04T04:43:41.437Z,71.90
2018-12-04T04:46:11.257Z,71.90
2018-12-04T04:48:41.061Z,71.90
2018-12-04T04:51:11.075Z,71.90
2018-12-04T04:53:40.944Z,71.90
2018-12-04T04:56:10.832Z,71.70
2018-12-04T04:58:40.697Z,72.20
2018-12-04T05:01:10.569Z,72.30
2018-12-04T05:03:40.550Z,72.20
2018-12-04T05:06:10.493Z,72.40
2018-12-04T05:08:40.379Z,72.30
2018-12-04T05:11:10.296Z,72.60
2018-12-04T05:13:40.251Z,72.70
2018-12-04T05:16:10.206Z,72.70
2018-12-04T05:18:40.223Z,72.70
2018-12-04T05:21:10.146Z,73.30
2018-12-04T05:23:40.440Z,72.50
2018-12-04T05:26:10.325Z,72.80
2018-12-04T05:28:40.182Z,72.90
2018-12-04T05:31:09.958Z,73.00
2018-12-04T05:33:39.771Z,73.30
2018-12-04T05:36:09.610Z,73.20
2018-12-04T05:38:39.449Z,73.20
2018-12-04T05:41:09.210Z,73.10
2018-12-04T05:43:39.036Z,73.10
2018-12-04T05:46:08.867Z,73.20
2018-12-04T05:48:38.561Z,73.20
2018-12-04T05:51:08.643Z,73.10
2018-12-04T05:53:38.080Z,73.00
2018-12-04T05:56:10.944Z,73.00
2018-12-04T05:58:41.014Z,72.90
2018-12-04T06:01:11.017Z,72.90
2018-12-04T06:03:42.236Z,72.90
2018-12-04T06:06:32.488Z,72.90
2018-12-04T06:09:43.286Z,73.00
2018-12-04T06:12:17.831Z,72.80
2018-12-04T06:14:47.683Z,73.70
2018-12-04T06:17:17.788Z,73.00
2018-12-04T06:19:47.639Z,73.00
2018-12-04T06:22:18.608Z,73.20
2018-12-04T06:24:55.785Z,74.10
2018-12-04T06:27:25.723Z,73.30
2018-12-04T06:29:55.585Z,73.30
2018-12-04T06:32:25.615Z,73.50
2018-12-04T06:34:55.443Z,73.40
2018-12-04T06:37:25.456Z,74.00
2018-12-04T06:39:55.189Z,74.40
2018-12-04T06:42:25.153Z,73.60
2018-12-04T06:44:54.964Z,73.70
2018-12-04T06:47:24.877Z,73.70
2018-12-04T06:49:54.861Z,73.70
2018-12-04T06:52:25.012Z,73.70
2018-12-04T06:54:55.452Z,73.90
2018-12-04T06:57:25.599Z,73.80
2018-12-04T06:59:55.490Z,73.70
2018-12-04T07:02:25.724Z,73.70
2018-12-04T07:04:55.994Z,74.20
2018-12-04T07:07:26.048Z,73.60
2018-12-04T07:09:56.005Z,73.60
2018-12-04T07:12:26.075Z,73.60
2018-12-04T07:14:57.210Z,73.60
2018-12-04T07:17:27.186Z,73.60
2018-12-04T07:19:57.155Z,73.60
2018-12-04T07:22:27.255Z,73.60
2018-12-04T07:24:57.177Z,73.60
2018-12-04T07:27:26.968Z,73.60
2018-12-04T07:29:56.797Z,73.70
2018-12-04T07:32:38.602Z,74.40
2018-12-04T07:35:06.104Z,73.80
2018-12-04T07:37:36.128Z,73.90
2018-12-04T07:40:06.903Z,73.90
2018-12-04T07:42:36.867Z,73.90
2018-12-04T07:45:07.530Z,74.00
2018-12-04T07:47:37.536Z,74.00
2018-12-04T07:50:07.748Z,74.00
2018-12-04T07:52:37.823Z,74.00
2018-12-04T07:55:07.712Z,73.90
2018-12-04T07:57:37.544Z,72.90
2018-12-04T08:00:09.055Z,71.00
2018-12-04T08:02:39.061Z,69.40
2018-12-04T08:05:09.104Z,69.20
2018-12-04T08:07:39.105Z,69.00
2018-12-04T08:10:09.308Z,68.80
2018-12-04T08:12:39.463Z,68.40
2018-12-04T08:15:09.548Z,68.70
2018-12-04T08:17:39.523Z,68.60
2018-12-04T08:20:10.072Z,68.30
2018-12-04T08:22:40.306Z,68.50
2018-12-04T08:25:10.339Z,68.30
2018-12-04T08:27:40.641Z,67.90
2018-12-04T08:30:11.103Z,67.40
2018-12-04T08:32:42.273Z,67.50
2018-12-04T08:35:18.876Z,67.30
2018-12-04T08:37:48.809Z,67.40
2018-12-04T08:40:18.926Z,67.40
2018-12-04T08:42:49.005Z,67.50
2018-12-04T08:45:19.373Z,67.50
2018-12-04T08:47:50.359Z,67.50
2018-12-04T08:50:20.374Z,67.90
2018-12-04T08:52:50.356Z,68.20
2018-12-04T08:55:20.519Z,68.60
2018-12-04T08:57:50.506Z,68.70
2018-12-04T09:00:20.642Z,68.50
2018-12-04T09:02:50.641Z,67.90
2018-12-04T09:05:20.646Z,68.20
2018-12-04T09:07:50.762Z,68.50
2018-12-04T09:10:20.830Z,68.50
2018-12-04T09:12:53.712Z,68.60
2018-12-04T09:15:23.630Z,68.10
2018-12-04T09:17:53.742Z,68.30
2018-12-04T09:20:23.847Z,67.50
2018-12-04T09:22:53.988Z,67.00
2018-12-04T09:25:24.945Z,66.40
2018-12-04T09:27:55.819Z,66.50
2018-12-04T09:30:26.117Z,66.40
2018-12-04T09:32:56.196Z,65.90
2018-12-04T09:35:26.294Z,65.80
2018-12-04T09:37:56.431Z,65.60
2018-12-04T09:40:26.612Z,65.50
2018-12-04T09:42:56.660Z,66.10
2018-12-04T09:45:26.858Z,65.30
2018-12-04T09:47:56.909Z,65.20
2018-12-04T09:50:27.028Z,65.10
2018-12-04T09:52:57.157Z,64.80
2018-12-04T09:55:27.421Z,64.60
2018-12-04T09:57:57.347Z,64.90
2018-12-04T10:00:27.434Z,65.70
2018-12-04T10:02:57.494Z,64.40
2018-12-04T10:05:27.582Z,63.90
2018-12-04T10:07:57.640Z,63.60
2018-12-04T10:10:27.720Z,63.10
2018-12-04T10:12:57.691Z,62.70
2018-12-04T10:15:27.715Z,62.40
2018-12-04T10:17:57.681Z,63.30
2018-12-04T10:20:27.745Z,62.00
2018-12-04T10:22:57.811Z,62.50
2018-12-04T10:25:27.849Z,62.40
2018-12-04T10:27:57.718Z,62.10
2018-12-04T10:30:27.758Z,62.10
2018-12-04T10:32:57.717Z,62.10
2018-12-04T10:35:27.813Z,61.60
2018-12-04T10:37:57.840Z,60.90
2018-12-04T10:40:28.141Z,60.40
2018-12-04T10:42:58.170Z,60.50
2018-12-04T10:45:28.285Z,60.40
2018-12-04T10:47:58.172Z,60.40
2018-12-04T10:50:28.001Z,60.10
2018-12-04T10:52:57.965Z,60.30
2018-12-04T10:55:27.818Z,60.00
2018-12-04T10:57:57.702Z,59.90
2018-12-04T11:00:32.982Z,59.90
2018-12-04T11:03:07.947Z,59.30
2018-12-04T11:05:37.950Z,59.00
2018-12-04T11:08:07.927Z,58.70
2018-12-04T11:10:37.927Z,58.60
2018-12-04T11:13:08.056Z,58.40
2018-12-04T11:15:38.075Z,58.00
2018-12-04T11:18:08.029Z,58.10
2018-12-04T11:20:38.091Z,58.40
2018-12-04T11:23:08.080Z,58.60
2018-12-04T11:25:38.038Z,58.50
2018-12-04T11:28:08.048Z,58.30
2018-12-04T11:30:38.079Z,58.40
2018-12-04T11:33:08.820Z,57.90
2018-12-04T11:35:38.965Z,56.90
2018-12-04T11:38:08.978Z,56.20
2018-12-04T11:40:38.996Z,54.10
2018-12-04T11:43:08.850Z,51.40
2018-12-04T11:45:38.809Z,50.50
2018-12-04T11:48:08.597Z,50.30
2018-12-04T11:50:38.400Z,50.30
2018-12-04T11:53:08.257Z,50.70
2018-12-04T11:55:38.232Z,50.90
2018-12-04T11:58:08.048Z,51.80
2018-12-04T12:00:38.034Z,52.50
2018-12-04T12:03:07.954Z,52.80
2018-12-04T12:05:37.802Z,53.40
2018-12-04T12:08:09.665Z,54.00
2018-12-04T12:10:39.538Z,54.00
2018-12-04T12:13:09.282Z,54.50
2018-12-04T12:15:39.278Z,54.40
2018-12-04T12:18:09.271Z,53.40
2018-12-04T12:20:39.168Z,50.60
2018-12-04T12:23:09.062Z,51.00
2018-12-04T12:25:39.180Z,50.80
2018-12-04T12:28:09.272Z,51.00
2018-12-04T12:30:39.325Z,50.80
2018-12-04T12:33:09.392Z,50.70
2018-12-04T12:35:39.344Z,50.90
2018-12-04T12:38:09.353Z,51.40
2018-12-04T12:40:39.501Z,51.80
2018-12-04T12:43:09.529Z,51.70
2018-12-04T12:45:39.546Z,51.90
2018-12-04T12:48:09.582Z,51.80
2018-12-04T12:50:39.606Z,51.80
2018-12-04T12:53:09.695Z,52.10
2018-12-04T12:55:39.658Z,52.10
2018-12-04T12:58:10.844Z,52.40
2018-12-04T13:00:40.841Z,52.00
2018-12-04T13:03:10.814Z,52.30
2018-12-04T13:05:40.879Z,52.60
2018-12-04T13:08:11.779Z,52.10
2018-12-04T13:10:41.790Z,52.10
2018-12-04T13:13:11.767Z,51.90
2018-12-04T13:15:41.793Z,51.70
2018-12-04T13:18:12.634Z,51.40
2018-12-04T13:20:42.980Z,51.30
2018-12-04T13:23:13.729Z,51.10
2018-12-04T13:25:43.675Z,50.90
2018-12-04T13:28:13.750Z,51.20
2018-12-04T13:30:43.910Z,51.20
2018-12-04T13:33:16.779Z,51.20
2018-12-04T13:35:46.800Z,51.90
2018-12-04T13:38:16.724Z,52.50
2018-12-04T13:40:46.865Z,52.90
2018-12-04T13:43:16.954Z,53.40
2018-12-04T13:45:46.864Z,53.80
2018-12-04T13:48:17.001Z,54.40
2018-12-04T13:50:46.929Z,54.50
2018-12-04T13:53:16.872Z,54.90
2018-12-04T13:55:49.855Z,55.20
2018-12-04T13:58:20.222Z,55.20
2018-12-04T14:00:51.177Z,55.40
2018-12-04T14:03:21.124Z,56.10
2018-12-04T14:05:52.589Z,55.00
2018-12-04T14:08:22.664Z,54.30
2018-12-04T14:10:52.549Z,54.10
2018-12-04T14:13:23.219Z,53.90
2018-12-04T14:15:56.750Z,53.70
2018-12-04T14:18:25.558Z,53.90
2018-12-04T14:20:55.448Z,54.40
2018-12-04T14:23:25.627Z,54.60
2018-12-04T14:25:55.668Z,54.40
2018-12-04T14:28:25.512Z,54.50
2018-12-04T14:30:55.610Z,54.60
2018-12-04T14:33:25.577Z,54.50
2018-12-04T14:35:55.742Z,54.90
2018-12-04T14:38:25.677Z,55.30
2018-12-04T14:41:01.537Z,55.60
2018-12-04T14:43:31.890Z,56.10
2018-12-04T14:46:02.051Z,57.60
2018-12-04T14:48:31.871Z,58.30
2018-12-04T14:51:01.605Z,58.80
2018-12-04T14:53:31.302Z,59.20
2018-12-04T14:56:00.958Z,59.70
2018-12-04T14:58:30.804Z,59.90
2018-12-04T15:01:00.522Z,60.10
2018-12-04T15:03:30.509Z,60.20
2018-12-04T15:06:00.271Z,59.90
2018-12-04T15:08:30.094Z,60.00
2018-12-04T15:11:00.059Z,60.20
2018-12-04T15:13:29.829Z,60.20
2018-12-04T15:15:59.651Z,60.00
2018-12-04T15:18:29.585Z,59.80
2018-12-04T15:20:59.315Z,59.60
2018-12-04T15:23:29.206Z,59.60
2018-12-04T15:26:00.022Z,59.70
2018-12-04T15:28:29.807Z,59.80
2018-12-04T15:30:59.626Z,59.90
2018-12-04T15:33:29.547Z,59.50
2018-12-04T15:35:59.652Z,59.50
2018-12-04T15:38:29.610Z,59.50
2018-12-04T15:40:59.616Z,59.50
2018-12-04T15:43:29.424Z,59.80
2018-12-04T15:45:59.423Z,60.00
2018-12-04T15:48:29.407Z,60.20
2018-12-04T15:51:00.103Z,60.60
2018-12-04T15:53:55.965Z,60.80
2018-12-04T15:56:32.602Z,61.00
2018-12-04T15:59:05.211Z,61.00
2018-12-04T16:01:43.427Z,61.10
2018-12-04T16:08:17.757Z,61.10
2018-12-04T16:10:48.147Z,60.70
2018-12-04T16:13:18.539Z,60.40
2018-12-04T16:15:52.144Z,60.20
2018-12-04T16:18:29.167Z,60.10
2018-12-04T16:20:58.974Z,60.10
2018-12-04T16:23:28.726Z,60.10
2018-12-04T16:25:58.591Z,60.30
2018-12-04T16:28:28.316Z,60.60
2018-12-04T16:30:58.276Z,60.80
2018-12-04T16:33:27.984Z,60.80
2018-12-04T16:35:57.762Z,60.70
2018-12-04T16:38:27.731Z,60.80
2018-12-04T16:40:59.098Z,60.70
2018-12-04T16:43:32.872Z,60.40
2018-12-04T16:46:02.960Z,60.00
2018-12-04T16:48:37.429Z,59.90
2018-12-04T16:51:21.337Z,59.90
2018-12-04T16:54:21.765Z,59.70
2018-12-04T16:57:06.010Z,59.60
2018-12-04T17:00:00.392Z,59.70
2018-12-04T17:02:43.915Z,59.60
2018-12-04T17:05:14.728Z,59.00
2018-12-04T17:07:51.450Z,59.10
2018-12-04T17:10:30.668Z,59.00
2018-12-04T17:13:05.757Z,58.90
2018-12-04T17:15:41.938Z,58.90
2018-12-04T17:21:03.442Z,59.30
2018-12-04T17:26:29.998Z,59.50
2018-12-04T17:31:57.039Z,59.20
2018-12-04T17:34:30.479Z,58.90
2018-12-04T17:37:24.329Z,58.50
2018-12-04T17:40:05.222Z,58.50
2018-12-04T17:42:51.400Z,58.60
2018-12-04T17:45:34.886Z,58.30
2018-12-04T17:48:05.188Z,58.00
2018-12-04T17:50:35.549Z,58.00
2018-12-04T17:53:05.473Z,58.00
2018-12-04T17:55:35.607Z,57.80
2018-12-04T17:58:07.650Z,57.90
2018-12-04T18:00:37.819Z,57.90
2018-12-04T18:03:07.895Z,57.90
2018-12-04T18:05:38.369Z,57.80
2018-12-04T18:08:08.452Z,58.00
2018-12-04T18:10:41.778Z,58.10
2018-12-04T18:13:16.516Z,58.20
2018-12-04T18:15:53.353Z,58.50
2018-12-04T18:18:25.839Z,58.50
2018-12-04T18:20:57.119Z,58.40
2018-12-04T18:23:28.909Z,58.30
2018-12-04T18:25:59.411Z,58.30
2018-12-04T18:28:29.825Z,58.40
2018-12-04T18:31:00.273Z,58.50
2018-12-04T18:33:30.536Z,58.50
2018-12-04T18:36:03.522Z,58.30
2018-12-04T18:38:33.220Z,58.40
2018-12-04T18:41:03.011Z,58.40
2018-12-04T18:43:32.981Z,58.50
2018-12-04T18:46:03.125Z,58.80
2018-12-04T18:48:33.028Z,58.90
2018-12-04T18:51:02.979Z,59.60
2018-12-04T18:53:32.971Z,59.00
2018-12-04T18:56:03.204Z,59.00
2018-12-04T18:58:33.540Z,59.00
2018-12-04T19:01:03.754Z,59.00
2018-12-04T19:03:35.107Z,59.00
2018-12-04T19:06:05.329Z,59.00
2018-12-04T19:08:40.473Z,59.00
2018-12-04T19:11:10.541Z,58.90
2018-12-04T19:13:40.564Z,59.00
2018-12-04T19:16:10.625Z,58.90
2018-12-04T19:18:40.938Z,59.00
2018-12-04T19:21:11.273Z,59.00
2018-12-04T19:23:41.786Z,59.00
2018-12-04T19:26:12.244Z,58.90
2018-12-04T19:28:42.386Z,58.60
2018-12-04T19:31:12.527Z,58.70
2018-12-04T19:33:42.664Z,58.40
2018-12-04T19:36:13.347Z,58.40
2018-12-04T19:38:43.547Z,57.90
2018-12-04T19:41:14.811Z,57.50
2018-12-04T19:43:44.802Z,57.00
2018-12-04T19:46:14.803Z,57.10
2018-12-04T19:48:45.308Z,57.20
2018-12-04T19:51:15.462Z,57.50
2018-12-04T19:53:45.366Z,57.60
2018-12-04T19:56:15.209Z,57.80
2018-12-04T19:58:45.199Z,58.00
2018-12-04T20:01:15.351Z,58.70
2018-12-04T20:03:46.732Z,58.00
2018-12-04T20:06:17.385Z,58.00
2018-12-04T20:08:54.816Z,58.10
2018-12-04T20:11:24.896Z,58.10
2018-12-04T20:13:55.901Z,58.00
2018-12-04T20:16:25.889Z,58.00
2018-12-04T20:18:55.955Z,57.90
2018-12-04T20:21:26.172Z,57.80
2018-12-04T20:23:56.411Z,57.60
2018-12-04T20:26:26.823Z,57.40
2018-12-04T20:28:57.082Z,57.10
2018-12-04T20:31:27.090Z,57.00
2018-12-04T20:33:56.952Z,56.70
2018-12-04T20:36:27.036Z,56.50
2018-12-04T20:38:57.246Z,56.00
2018-12-04T20:41:28.223Z,56.40
2018-12-04T20:43:58.303Z,55.50
2018-12-04T20:46:28.263Z,55.40
2018-12-04T20:48:58.222Z,55.20
2018-12-04T20:51:28.235Z,55.20
2018-12-04T20:53:58.289Z,55.10
2018-12-04T20:56:28.247Z,55.00
2018-12-04T20:58:58.115Z,54.80
2018-12-04T21:01:28.205Z,54.60
2018-12-04T21:03:58.507Z,54.50
2018-12-04T21:06:28.588Z,54.50
2018-12-04T21:08:59.891Z,54.20
2018-12-04T21:11:30.238Z,54.10
2018-12-04T21:14:00.207Z,54.00
2018-12-04T21:16:30.254Z,54.00
2018-12-04T21:19:00.229Z,53.50
2018-12-04T21:21:30.312Z,53.20
2018-12-04T21:24:00.415Z,53.00
2018-12-04T21:26:36.618Z,52.90
2018-12-04T21:29:07.844Z,53.20
2018-12-04T21:31:42.956Z,53.20
2018-12-04T21:34:18.414Z,52.90
2018-12-04T21:36:53.336Z,52.60
2018-12-04T21:39:30.045Z,53.00
2018-12-04T21:42:03.905Z,52.90
2018-12-04T21:44:39.240Z,52.70
2018-12-04T21:47:14.602Z,52.50
2018-12-04T21:49:44.901Z,52.60
2018-12-04T21:52:14.721Z,52.60
2018-12-04T21:54:44.545Z,52.60
2018-12-04T21:57:14.378Z,52.80
2018-12-04T21:59:44.262Z,52.90
2018-12-04T22:02:14.014Z,53.00
2018-12-04T22:04:43.830Z,53.20
2018-12-04T22:07:13.585Z,53.20
2018-12-04T22:09:43.479Z,53.20
2018-12-04T22:12:16.558Z,53.30
2018-12-04T22:14:46.301Z,53.40
2018-12-04T22:17:16.458Z,53.40
2018-12-04T22:19:46.633Z,53.40
2018-12-04T22:22:16.354Z,53.50
2018-12-04T22:24:45.988Z,53.40
2018-12-04T22:27:15.855Z,53.30
2018-12-04T22:29:45.747Z,53.40
2018-12-04T22:32:16.888Z,53.40
2018-12-04T22:34:47.140Z,53.50
2018-12-04T22:37:17.298Z,53.50
2018-12-04T22:39:47.137Z,53.40
2018-12-04T22:42:17.161Z,53.60
2018-12-04T22:44:47.213Z,53.70
2018-12-04T22:47:17.791Z,53.60
2018-12-04T22:49:47.848Z,53.60
2018-12-04T22:52:17.918Z,53.70
2018-12-04T22:54:48.383Z,53.90
2018-12-04T22:57:18.326Z,53.70
2018-12-04T22:59:48.489Z,53.70
2018-12-04T23:02:18.474Z,53.60
2018-12-04T23:04:48.658Z,53.50
2018-12-04T23:07:18.750Z,53.60
2018-12-04T23:09:48.821Z,53.60
2018-12-04T23:12:18.916Z,53.80
2018-12-04T23:14:48.818Z,53.90
2018-12-04T23:17:18.809Z,53.80
2018-12-04T23:19:48.789Z,53.60
2018-12-04T23:22:18.602Z,53.70
2018-12-04T23:24:48.534Z,53.80
2018-12-04T23:27:18.501Z,53.90
2018-12-04T23:29:48.824Z,53.70
2018-12-04T23:32:19.052Z,53.50
2018-12-04T23:34:49.120Z,53.30
2018-12-04T23:37:19.042Z,53.30
2018-12-04T23:39:49.126Z,53.20
2018-12-04T23:42:19.407Z,53.30
2018-12-04T23:44:49.429Z,53.40
2018-12-04T23:47:19.571Z,53.50
2018-12-04T23:49:49.737Z,53.60
2018-12-04T23:52:19.643Z,53.70
2018-12-04T23:54:51.338Z,53.90
2018-12-04T23:57:21.489Z,54.20
2018-12-04T23:59:51.488Z,54.40
